Time;durP1;ratioP1;P1;durP2;ratioP2;P2;SDS_P1;SDS_P2;PMS_P1;PMS_P2;Temp;Humidity;BMP_temperature;BMP_pressure;BME280_temperature;BME280_humidity;BME280_pressure;Samples;Min_cycle;Max_cycle;Signal;HPM_P1;HPM_P2
2022/04/29 00:00:14;;;;;;;;;;;7.60;58.80;;;;;;5069843;28;19948;-74
2022/04/29 00:02:40;;;;;;;;;;;7.60;58.80;;;;;;5068643;28;19916;-74
2022/04/29 00:05:06;;;;;;;;;;;7.60;58.90;;;;;;5069790;28;20265;-75
2022/04/29 00:07:31;;;;;;;;;;;7.50;58.90;;;;;;5068267;28;20301;-74
2022/04/29 00:09:57;;;;;;;;;;;7.50;58.90;;;;;;5069713;28;19926;-74
2022/04/29 00:12:22;;;;;;;;;;;7.50;58.90;;;;;;5069636;28;19974;-75
2022/04/29 00:14:48;;;;;;;;;;;7.40;58.80;;;;;;5069667;28;19917;-74
2022/04/29 00:17:14;;;;;;;;;;;7.40;58.80;;;;;;5069451;28;19912;-74
2022/04/29 00:19:40;;;;;;;;;;;7.30;58.80;;;;;;5069590;28;20480;-74
2022/04/29 00:22:06;;;;;;;;;;;7.30;58.80;;;;;;5068087;28;19912;-75
2022/04/29 00:24:31;;;;;;;;;;;7.20;58.80;;;;;;5069510;28;20270;-74
2022/04/29 00:26:58;;;;;;;;;;;7.20;58.80;;;;;;5069411;28;19913;-74
2022/04/29 00:29:24;;;;;;;;;;;7.10;58.90;;;;;;5069236;28;19991;-74
2022/04/29 00:31:50;;;;;;;;;;;7.10;58.90;;;;;;5069148;28;20055;-74
2022/04/29 00:34:16;;;;;;;;;;;7.10;58.90;;;;;;5069260;28;20007;-74
2022/04/29 00:36:41;;;;;;;;;;;7.10;58.80;;;;;;5069466;28;20519;-75
2022/04/29 00:39:07;;;;;;;;;;;7.10;58.90;;;;;;5069146;28;19909;-75
2022/04/29 00:41:32;;;;;;;;;;;7.00;58.80;;;;;;5069137;28;19916;-74
2022/04/29 00:43:59;;;;;;;;;;;7.00;58.90;;;;;;5068970;28;19936;-74
2022/04/29 00:46:25;;;;;;;;;;;7.00;58.90;;;;;;5067718;28;20459;-74
2022/04/29 00:48:50;;;;;;;;;;;6.90;58.90;;;;;;5068942;28;19994;-75
2022/04/29 00:51:16;;;;;;;;;;;6.80;58.90;;;;;;5068942;28;20003;-75
2022/04/29 00:53:41;;;;;;;;;;;6.80;58.90;;;;;;5068918;28;19912;-73
2022/04/29 00:56:08;;;;;;;;;;;6.70;58.90;;;;;;5068819;28;20343;-73
2022/04/29 00:58:37;;;;;;;;;;;6.70;58.90;;;;;;5068846;28;19916;-74
2022/04/29 01:01:03;;;;;;;;;;;6.60;59.00;;;;;;5069179;28;20003;-74
2022/04/29 01:03:29;;;;;;;;;;;6.60;59.00;;;;;;5068533;28;19920;-73
2022/04/29 01:05:55;;;;;;;;;;;6.50;58.90;;;;;;5068796;28;19909;-75
2022/04/29 01:08:21;;;;;;;;;;;6.50;58.90;;;;;;5068582;28;19912;-75
2022/04/29 01:10:47;;;;;;;;;;;6.50;59.00;;;;;;5067878;28;20355;-74
2022/04/29 01:13:13;;;;;;;;;;;6.50;58.90;;;;;;5068616;28;19949;-74
2022/04/29 01:15:38;;;;;;;;;;;6.40;58.90;;;;;;5068580;28;20405;-74
2022/04/29 01:18:09;;;;;;;;;;;6.30;58.90;;;;;;5068382;28;19938;-73
2022/04/29 01:20:35;;;;;;;;;;;6.30;58.90;;;;;;5068502;28;20355;-74
2022/04/29 01:23:28;;;;;;;;;;;6.20;58.80;;;;;;5068593;28;19920;-74
2022/04/29 01:25:54;;;;;;;;;;;6.10;58.90;;;;;;5067426;28;19909;-75
2022/04/29 01:28:21;;;;;;;;;;;6.10;59.00;;;;;;5068274;28;19966;-74
2022/04/29 01:30:49;;;;;;;;;;;6.10;59.10;;;;;;5068285;28;19970;-74
2022/04/29 01:33:15;;;;;;;;;;;6.10;59.10;;;;;;5068353;28;19908;-74
2022/04/29 01:35:40;;;;;;;;;;;6.10;59.00;;;;;;5068237;28;19912;-74
2022/04/29 01:38:06;;;;;;;;;;;6.00;58.90;;;;;;5068280;28;19909;-74
2022/04/29 01:40:32;;;;;;;;;;;6.00;59.00;;;;;;5068211;28;19917;-73
2022/04/29 01:42:57;;;;;;;;;;;6.00;59.00;;;;;;5068150;28;19924;-74
2022/04/29 01:45:23;;;;;;;;;;;6.00;58.90;;;;;;5066895;28;19912;-73
2022/04/29 01:47:48;;;;;;;;;;;6.00;58.90;;;;;;5068324;28;19915;-74
2022/04/29 01:50:14;;;;;;;;;;;6.00;59.00;;;;;;5067951;28;19912;-74
2022/04/29 01:52:40;;;;;;;;;;;5.90;59.00;;;;;;5068202;28;19916;-75
2022/04/29 01:55:05;;;;;;;;;;;6.00;59.10;;;;;;5066899;28;20371;-74
2022/04/29 01:57:31;;;;;;;;;;;5.90;59.00;;;;;;5068057;28;19948;-73
2022/04/29 01:59:57;;;;;;;;;;;5.90;59.00;;;;;;5066762;28;19917;-74
2022/04/29 02:02:23;;;;;;;;;;;5.80;59.10;;;;;;5067919;28;19989;-74
2022/04/29 02:04:49;;;;;;;;;;;5.80;59.20;;;;;;5067899;28;19924;-74
2022/04/29 02:07:14;;;;;;;;;;;5.80;59.20;;;;;;5067957;28;19952;-74
2022/04/29 02:09:40;;;;;;;;;;;5.70;59.10;;;;;;5067991;28;20378;-74
2022/04/29 02:12:06;;;;;;;;;;;5.70;59.00;;;;;;5067927;28;20004;-74
2022/04/29 02:14:33;;;;;;;;;;;5.70;59.00;;;;;;5067874;28;19923;-74
2022/04/29 02:16:59;;;;;;;;;;;5.70;58.90;;;;;;5067864;28;19912;-75
2022/04/29 02:19:25;;;;;;;;;;;5.60;58.90;;;;;;5067726;28;19957;-75
2022/04/29 02:21:51;;;;;;;;;;;5.60;58.90;;;;;;5069725;28;19908;-75
2022/04/29 02:24:17;;;;;;;;;;;5.50;58.90;;;;;;5071661;28;19927;-74
2022/04/29 02:26:42;;;;;;;;;;;5.50;58.80;;;;;;5071575;28;19909;-74
2022/04/29 02:29:08;;;;;;;;;;;5.50;58.80;;;;;;5071532;28;19916;-74
2022/04/29 02:31:34;;;;;;;;;;;5.50;58.90;;;;;;5071694;28;20297;-75
2022/04/29 02:33:59;;;;;;;;;;;5.50;58.90;;;;;;5071652;28;20371;-74
2022/04/29 02:36:25;;;;;;;;;;;5.40;58.90;;;;;;5071515;28;19912;-73
2022/04/29 02:38:50;;;;;;;;;;;5.40;58.90;;;;;;5071474;28;20369;-74
2022/04/29 02:41:16;;;;;;;;;;;5.40;59.00;;;;;;5071473;28;20297;-75
2022/04/29 02:43:42;;;;;;;;;;;5.50;59.00;;;;;;5071378;28;19969;-75
2022/04/29 02:46:07;;;;;;;;;;;5.40;58.90;;;;;;5071590;28;19963;-75
2022/04/29 02:48:33;;;;;;;;;;;5.40;58.90;;;;;;5071088;28;19908;-73
2022/04/29 02:50:59;;;;;;;;;;;5.40;59.00;;;;;;5071338;28;19909;-74
2022/04/29 02:53:24;;;;;;;;;;;5.40;59.00;;;;;;5071680;28;19916;-75
2022/04/29 02:55:50;;;;;;;;;;;5.40;59.00;;;;;;5071103;28;19940;-75
2022/04/29 02:58:15;;;;;;;;;;;5.50;59.10;;;;;;5069996;28;20286;-74
2022/04/29 03:00:41;;;;;;;;;;;5.40;59.00;;;;;;5071112;28;19919;-74
2022/04/29 03:03:07;;;;;;;;;;;5.30;59.00;;;;;;5071243;28;20416;-75
2022/04/29 03:05:32;;;;;;;;;;;5.20;59.10;;;;;;5071117;28;19919;-75
2022/04/29 03:07:58;;;;;;;;;;;5.20;59.40;;;;;;5071103;28;20382;-74
2022/04/29 03:10:23;;;;;;;;;;;5.20;59.40;;;;;;5071024;28;19912;-74
2022/04/29 03:12:49;;;;;;;;;;;5.10;59.40;;;;;;5071176;28;19913;-75
2022/04/29 03:15:17;;;;;;;;;;;5.10;59.40;;;;;;5070847;28;19920;-74
2022/04/29 03:20:29;;;;;;;;;;;5.00;59.50;;;;;;5071083;28;20008;-75
2022/04/29 03:22:55;;;;;;;;;;;4.90;59.60;;;;;;5070641;28;19990;-74
2022/04/29 03:25:20;;;;;;;;;;;4.90;59.60;;;;;;5070788;28;20011;-73
2022/04/29 03:27:46;;;;;;;;;;;4.90;59.70;;;;;;5070586;28;19957;-75
2022/04/29 03:30:12;;;;;;;;;;;4.90;59.70;;;;;;5070621;28;19916;-74
2022/04/29 03:32:37;;;;;;;;;;;4.90;59.70;;;;;;5051474;28;20424;-75
2022/04/29 03:35:03;;;;;;;;;;;5.00;59.70;;;;;;5070410;28;19913;-74
2022/04/29 03:37:29;;;;;;;;;;;5.00;59.60;;;;;;5070467;28;20416;-74
2022/04/29 03:39:55;;;;;;;;;;;5.00;59.50;;;;;;5070548;28;20385;-76
2022/04/29 03:42:21;;;;;;;;;;;5.00;59.40;;;;;;5070344;28;19908;-76
2022/04/29 03:44:46;;;;;;;;;;;5.00;59.40;;;;;;5070471;28;20007;-75
2022/04/29 03:47:12;;;;;;;;;;;4.90;59.30;;;;;;5070167;28;19923;-73
2022/04/29 03:49:37;;;;;;;;;;;4.90;59.40;;;;;;5070197;28;20358;-74
2022/04/29 03:52:06;;;;;;;;;;;4.90;59.30;;;;;;5070127;28;19919;-74
2022/04/29 03:54:32;;;;;;;;;;;4.90;59.30;;;;;;5068827;28;20370;-75
2022/04/29 03:56:58;;;;;;;;;;;4.90;59.30;;;;;;5068913;28;19916;-74
2022/04/29 03:59:24;;;;;;;;;;;4.90;59.30;;;;;;5069863;28;19963;-75
2022/04/29 04:01:50;;;;;;;;;;;4.80;59.20;;;;;;5069793;28;19944;-74
2022/04/29 04:04:15;;;;;;;;;;;4.80;59.20;;;;;;5069713;28;19917;-75
2022/04/29 04:06:50;;;;;;;;;;;4.90;59.30;;;;;;5068496;28;20022;-73
2022/04/29 04:09:16;;;;;;;;;;;4.80;59.20;;;;;;5069799;28;19966;-74
2022/04/29 04:11:42;;;;;;;;;;;4.80;59.30;;;;;;5069806;28;19909;-74
2022/04/29 04:14:08;;;;;;;;;;;4.70;59.30;;;;;;5069735;28;19927;-74
2022/04/29 04:16:34;;;;;;;;;;;4.70;59.20;;;;;;5069683;28;19999;-74
2022/04/29 04:19:00;;;;;;;;;;;4.70;59.20;;;;;;5069486;28;20020;-75
2022/04/29 04:21:25;;;;;;;;;;;4.60;59.20;;;;;;5069566;28;19916;-74
2022/04/29 04:23:53;;;;;;;;;;;4.60;59.30;;;;;;5069598;28;19921;-75
2022/04/29 04:26:18;;;;;;;;;;;4.60;59.30;;;;;;5069596;28;19961;-76
2022/04/29 04:28:44;;;;;;;;;;;4.50;59.30;;;;;;5069371;28;20378;-75
2022/04/29 04:31:09;;;;;;;;;;;4.50;59.40;;;;;;5069176;28;19925;-74
2022/04/29 04:33:35;;;;;;;;;;;4.50;59.40;;;;;;5069384;28;20003;-75
2022/04/29 04:36:01;;;;;;;;;;;4.60;59.40;;;;;;5069233;28;19917;-74
2022/04/29 04:38:26;;;;;;;;;;;4.50;59.40;;;;;;5069079;28;20277;-75
2022/04/29 04:40:53;;;;;;;;;;;4.50;59.50;;;;;;5067854;28;19923;-74
2022/04/29 04:43:20;;;;;;;;;;;4.50;59.40;;;;;;5069163;28;19917;-73
2022/04/29 04:45:46;;;;;;;;;;;4.50;59.40;;;;;;5069039;28;19909;-74
2022/04/29 04:48:12;;;;;;;;;;;4.40;59.20;;;;;;5067573;28;19923;-74
2022/04/29 04:50:38;;;;;;;;;;;4.40;59.30;;;;;;5069439;28;20371;-76
2022/04/29 04:53:03;;;;;;;;;;;4.30;59.30;;;;;;5068935;28;20327;-75
2022/04/29 04:55:29;;;;;;;;;;;4.30;59.30;;;;;;5068795;28;19913;-75
2022/04/29 04:57:54;;;;;;;;;;;4.30;59.30;;;;;;5068587;28;19909;-74
2022/04/29 05:00:21;;;;;;;;;;;4.20;59.30;;;;;;5069071;28;19953;-74
2022/04/29 05:02:46;;;;;;;;;;;4.10;59.40;;;;;;5068680;28;19922;-75
2022/04/29 05:05:12;;;;;;;;;;;4.10;59.50;;;;;;5068731;28;19962;-75
2022/04/29 05:07:38;;;;;;;;;;;4.10;59.50;;;;;;5068710;28;20025;-74
2022/04/29 05:10:05;;;;;;;;;;;4.10;59.60;;;;;;5068607;28;19919;-75
2022/04/29 05:12:31;;;;;;;;;;;4.00;59.60;;;;;;5067277;28;19962;-76
2022/04/29 05:14:56;;;;;;;;;;;3.90;59.70;;;;;;5068571;28;19940;-75
2022/04/29 05:17:22;;;;;;;;;;;3.90;59.70;;;;;;5068965;28;19909;-74
2022/04/29 05:19:47;;;;;;;;;;;4.00;59.80;;;;;;5068300;28;19920;-75
2022/04/29 05:22:13;;;;;;;;;;;4.00;59.80;;;;;;5068538;28;20438;-75
2022/04/29 05:24:38;;;;;;;;;;;4.00;59.70;;;;;;5068394;28;20390;-75
2022/04/29 05:27:04;;;;;;;;;;;4.10;59.70;;;;;;5068755;28;20057;-74
2022/04/29 05:29:30;;;;;;;;;;;4.10;59.60;;;;;;5068233;28;19909;-75
2022/04/29 05:31:55;;;;;;;;;;;4.20;59.60;;;;;;5068058;28;19928;-74
2022/04/29 05:34:21;;;;;;;;;;;4.30;59.60;;;;;;5068327;28;19931;-75
2022/04/29 05:36:47;;;;;;;;;;;4.30;59.60;;;;;;5068332;28;19999;-74
2022/04/29 05:42:14;;;;;;;;;;;4.50;59.50;;;;;;5068551;28;19923;-75
2022/04/29 05:44:40;;;;;;;;;;;4.70;59.50;;;;;;5068288;28;19916;-75
2022/04/29 05:47:06;;;;;;;;;;;4.70;59.60;;;;;;5068092;28;20394;-75
2022/04/29 05:49:32;;;;;;;;;;;4.80;60.20;;;;;;5067480;28;20319;-74
2022/04/29 05:52:03;;;;;;;;;;;4.90;59.70;;;;;;5067791;28;19916;-74
2022/04/29 05:54:29;;;;;;;;;;;5.00;59.70;;;;;;5067679;28;19924;-75
2022/04/29 05:56:54;;;;;;;;;;;5.20;59.70;;;;;;5066387;28;19920;-74
2022/04/29 05:59:20;;;;;;;;;;;5.30;59.70;;;;;;5067508;28;19920;-75
2022/04/29 06:01:45;;;;;;;;;;;5.50;60.40;;;;;;5067846;28;20397;-75
2022/04/29 06:04:12;;;;;;;;;;;5.70;59.80;;;;;;5067738;28;20283;-75
2022/04/29 06:06:37;;;;;;;;;;;5.80;59.60;;;;;;5067804;28;20289;-74
2022/04/29 06:09:03;;;;;;;;;;;5.90;59.60;;;;;;5067628;28;20007;-75
2022/04/29 06:11:28;;;;;;;;;;;6.10;59.80;;;;;;5067911;28;19913;-74
2022/04/29 06:13:54;;;;;;;;;;;6.30;59.80;;;;;;5068282;28;19913;-72
2022/04/29 06:16:20;;;;;;;;;;;6.50;59.70;;;;;;5067791;28;20301;-75
2022/04/29 06:18:45;;;;;;;;;;;6.70;59.60;;;;;;5067545;28;20345;-74
2022/04/29 06:21:11;;;;;;;;;;;6.90;59.60;;;;;;5066261;28;19918;-74
2022/04/29 06:23:37;;;;;;;;;;;7.40;60.10;;;;;;5067533;28;19916;-75
2022/04/29 06:26:02;;;;;;;;;;;8.20;59.10;;;;;;5067424;28;19913;-74
2022/04/29 06:28:28;;;;;;;;;;;8.40;58.30;;;;;;5067075;28;19921;-74
2022/04/29 06:30:53;;;;;;;;;;;8.40;58.70;;;;;;5067124;28;19925;-73
2022/04/29 06:33:20;;;;;;;;;;;8.30;58.30;;;;;;5067376;28;19948;-73
2022/04/29 06:35:47;;;;;;;;;;;8.10;58.60;;;;;;5066293;28;19920;-74
2022/04/29 06:38:13;;;;;;;;;;;8.00;59.00;;;;;;5066185;28;19916;-75
2022/04/29 06:40:39;;;;;;;;;;;7.90;59.30;;;;;;5067404;28;19968;-73
2022/04/29 06:43:04;;;;;;;;;;;7.90;59.50;;;;;;5067458;28;20094;-75
2022/04/29 06:45:30;;;;;;;;;;;7.90;59.60;;;;;;5065640;28;19920;-74
2022/04/29 06:47:55;;;;;;;;;;;8.00;59.60;;;;;;5065561;28;19958;-75
2022/04/29 06:50:21;;;;;;;;;;;8.10;59.70;;;;;;5067139;28;19931;-74
2022/04/29 06:52:47;;;;;;;;;;;8.20;59.70;;;;;;5065984;28;19997;-73
2022/04/29 06:55:12;;;;;;;;;;;8.30;59.80;;;;;;5066503;28;20368;-75
2022/04/29 06:57:38;;;;;;;;;;;8.40;59.70;;;;;;5066967;28;20069;-74
2022/04/29 07:00:04;;;;;;;;;;;8.50;59.70;;;;;;5065331;28;20260;-74
2022/04/29 07:02:31;;;;;;;;;;;8.60;60.20;;;;;;5067109;28;19937;-75
2022/04/29 07:04:57;;;;;;;;;;;8.80;59.70;;;;;;5067136;28;19908;-73
2022/04/29 07:07:24;;;;;;;;;;;8.90;59.70;;;;;;5066913;28;20015;-74
2022/04/29 07:09:50;;;;;;;;;;;9.00;59.70;;;;;;5069831;28;19996;-73
2022/04/29 07:12:16;;;;;;;;;;;9.20;60.00;;;;;;5070572;28;20012;-73
2022/04/29 07:14:41;;;;;;;;;;;9.90;60.70;;;;;;5069832;28;20013;-74
2022/04/29 07:17:10;;;;;;;;;;;10.90;60.80;;;;;;5070248;28;19990;-73
2022/04/29 07:19:38;;;;;;;;;;;12.10;60.10;;;;;;5070218;28;20428;-72
2022/04/29 07:22:04;;;;;;;;;;;13.00;59.10;;;;;;5070260;28;20234;-73
2022/04/29 07:24:30;;;;;;;;;;;13.80;58.50;;;;;;5069757;28;20302;-72
2022/04/29 07:26:57;;;;;;;;;;;14.00;58.30;;;;;;5068515;28;19913;-74
2022/04/29 07:29:22;;;;;;;;;;;14.20;58.00;;;;;;5069743;28;19920;-73
2022/04/29 07:31:48;;;;;;;;;;;14.80;58.60;;;;;;5069694;28;20004;-74
2022/04/29 07:34:14;;;;;;;;;;;15.60;58.20;;;;;;5069943;28;20347;-75
2022/04/29 07:42:08;;;;;;;;;;;17.00;58.20;;;;;;5069845;28;20415;-74
2022/04/29 07:44:34;;;;;;;;;;;17.40;58.70;;;;;;5069614;28;19917;-74
2022/04/29 07:46:59;;;;;;;;;;;17.70;58.30;;;;;;5069361;28;19909;-73
2022/04/29 07:49:25;;;;;;;;;;;17.80;58.90;;;;;;5069386;28;19908;-75
2022/04/29 07:51:50;;;;;;;;;;;18.30;59.50;;;;;;5069004;28;19913;-73
2022/04/29 07:54:16;;;;;;;;;;;19.10;59.50;;;;;;5068922;28;19948;-74
2022/04/29 07:56:41;;;;;;;;;;;20.00;59.20;;;;;;5067841;28;20269;-74
2022/04/29 07:59:07;;;;;;;;;;;20.90;58.90;;;;;;5068683;28;19920;-75
2022/04/29 08:01:37;;;;;;;;;;;21.60;58.40;;;;;;5068515;28;19917;-73
2022/04/29 08:04:02;;;;;;;;;;;22.30;58.40;;;;;;5068178;28;19959;-73
2022/04/29 08:06:28;;;;;;;;;;;22.90;57.90;;;;;;5068695;28;19963;-74
2022/04/29 08:08:54;;;;;;;;;;;23.10;57.20;;;;;;5068610;28;19913;-74
2022/04/29 08:11:19;;;;;;;;;;;23.30;55.70;;;;;;5068646;28;20032;-73
2022/04/29 08:13:45;;;;;;;;;;;23.20;56.20;;;;;;5068669;28;20378;-74
2022/04/29 08:16:15;;;;;;;;;;;23.10;56.60;;;;;;5068447;28;19909;-73
2022/04/29 08:18:40;;;;;;;;;;;23.00;56.30;;;;;;5068282;28;20382;-72
2022/04/29 08:21:06;;;;;;;;;;;22.90;56.20;;;;;;5068732;28;19919;-74
2022/04/29 08:23:32;;;;;;;;;;;23.10;57.00;;;;;;5068523;28;20398;-73
2022/04/29 08:25:58;;;;;;;;;;;23.40;56.90;;;;;;5067056;28;19912;-75
2022/04/29 08:28:25;;;;;;;;;;;23.50;56.70;;;;;;5068538;28;19912;-74
2022/04/29 08:30:51;;;;;;;;;;;23.70;56.70;;;;;;5067777;28;20374;-73
2022/04/29 08:33:17;;;;;;;;;;;23.80;57.00;;;;;;5066969;28;19912;-73
2022/04/29 08:35:43;;;;;;;;;;;23.90;56.80;;;;;;5068165;28;19912;-74
2022/04/29 08:38:09;;;;;;;;;;;24.10;56.20;;;;;;5067988;28;19908;-75
2022/04/29 08:40:39;;;;;;;;;;;23.70;56.00;;;;;;5068435;28;19962;-74
2022/04/29 08:43:05;;;;;;;;;;;23.40;56.30;;;;;;5068204;28;19920;-74
2022/04/29 08:45:31;;;;;;;;;;;23.10;56.00;;;;;;5068144;28;19932;-74
2022/04/29 08:47:56;;;;;;;;;;;22.80;56.70;;;;;;5067977;28;19917;-71
2022/04/29 08:50:22;;;;;;;;;;;22.90;57.30;;;;;;5067734;28;19947;-75
2022/04/29 08:52:49;;;;;;;;;;;23.00;56.80;;;;;;5067919;28;19916;-74
2022/04/29 09:00:44;;;;;;;;;;;23.80;55.60;;;;;;5068050;28;19919;-75
2022/04/29 09:03:13;;;;;;;;;;;24.00;55.40;;;;;;5067849;28;20329;-74
2022/04/29 09:05:39;;;;;;;;;;;24.30;55.90;;;;;;5067562;28;19995;-73
2022/04/29 09:08:05;;;;;;;;;;;24.70;55.90;;;;;;5067387;28;20337;-73
2022/04/29 09:10:34;;;;;;;;;;;24.70;55.70;;;;;;5068054;28;20275;-74
2022/04/29 09:13:17;;;;;;;;;;;24.60;56.20;;;;;;5067610;28;19916;-73
2022/04/29 09:15:50;;;;;;;;;;;24.80;54.90;;;;;;5066213;28;19908;-74
2022/04/29 09:18:28;;;;;;;;;;;25.00;55.20;;;;;;5067262;28;19930;-73
2022/04/29 09:20:53;;;;;;;;;;;25.00;54.80;;;;;;5065852;28;20358;-74
2022/04/29 09:23:26;;;;;;;;;;;25.00;55.40;;;;;;5068384;28;19951;-74
2022/04/29 09:25:51;;;;;;;;;;;25.20;55.40;;;;;;5068214;28;19913;-74
2022/04/29 09:28:17;;;;;;;;;;;25.40;54.30;;;;;;5068030;28;19967;-73
2022/04/29 09:30:42;;;;;;;;;;;25.50;53.90;;;;;;5067541;28;19943;-74
2022/04/29 09:33:18;;;;;;;;;;;25.50;53.70;;;;;;5068077;28;20007;-74
2022/04/29 09:35:45;;;;;;;;;;;25.30;54.00;;;;;;5068530;28;19920;-73
2022/04/29 09:40:56;;;;;;;;;;;25.20;54.90;;;;;;5067377;28;19966;-74
2022/04/29 09:43:31;;;;;;;;;;;25.50;55.30;;;;;;5066565;28;20358;-73
2022/04/29 09:46:10;;;;;;;;;;;25.70;55.00;;;;;;5066716;28;20015;-64
2022/04/29 09:48:51;;;;;;;;;;;25.90;55.10;;;;;;5067983;28;20278;-75
2022/04/29 09:51:36;;;;;;;;;;;26.40;54.90;;;;;;5064252;28;19917;-75
2022/04/29 09:54:35;;;;;;;;;;;26.60;54.50;;;;;;5066721;28;19913;-75
2022/04/29 09:57:04;;;;;;;;;;;26.70;54.10;;;;;;5057906;28;19928;-75
2022/04/29 09:59:37;;;;;;;;;;;27.00;54.20;;;;;;5065722;28;20499;-74
2022/04/29 10:02:03;;;;;;;;;;;27.10;53.20;;;;;;5067536;28;19909;-75
2022/04/29 10:04:31;;;;;;;;;;;26.90;53.50;;;;;;5066499;28;20009;-74
2022/04/29 10:06:58;;;;;;;;;;;26.90;53.60;;;;;;5067826;28;20366;-74
2022/04/29 10:09:27;;;;;;;;;;;26.80;53.60;;;;;;5066512;28;19908;-74
2022/04/29 10:11:53;;;;;;;;;;;26.50;53.50;;;;;;5068134;28;20287;-67
2022/04/29 10:14:21;;;;;;;;;;;26.30;53.60;;;;;;5067982;28;19933;-67
2022/04/29 10:21:15;;;;;;;;;;;25.80;53.10;;;;;;5068216;28;19908;-72
2022/04/29 10:22:20;;;;;;;;;;;25.50;53.70;;;;;;5068267;28;19915;-73
2022/04/29 10:24:46;;;;;;;;;;;25.70;53.70;;;;;;5067493;28;20414;-73
2022/04/29 10:27:11;;;;;;;;;;;25.90;53.00;;;;;;5067828;28;19978;-72
2022/04/29 10:29:37;;;;;;;;;;;26.20;53.10;;;;;;5100037;28;19916;-74
2022/04/29 10:32:07;;;;;;;;;;;26.20;52.90;;;;;;5067677;28;19940;-73
2022/04/29 10:34:34;;;;;;;;;;;26.40;52.70;;;;;;5067933;28;20046;-74
2022/04/29 10:37:00;;;;;;;;;;;26.70;53.10;;;;;;5099374;28;19921;-73
2022/04/29 10:39:26;;;;;;;;;;;26.90;52.90;;;;;;5067140;28;19920;-75
2022/04/29 10:41:58;;;;;;;;;;;27.00;52.50;;;;;;5067411;28;19913;-68
2022/04/29 10:44:24;;;;;;;;;;;26.90;52.70;;;;;;5070995;28;20535;-69
2022/04/29 10:46:49;;;;;;;;;;;26.80;53.30;;;;;;5071287;28;19913;-72
2022/04/29 10:49:18;;;;;;;;;;;27.10;53.50;;;;;;5103478;28;20292;-73
2022/04/29 10:51:54;;;;;;;;;;;27.30;53.70;;;;;;5071238;28;19915;-74
2022/04/29 10:54:34;;;;;;;;;;;27.50;52.20;;;;;;5070194;28;20328;-74
2022/04/29 10:57:02;;;;;;;;;;;27.60;52.70;;;;;;5071171;28;19946;-74
2022/04/29 10:59:47;;;;;;;;;;;27.20;52.30;;;;;;5071145;28;20436;-74
2022/04/29 11:02:21;;;;;;;;;;;26.70;52.60;;;;;;5069391;28;19915;-74
2022/04/29 11:04:47;;;;;;;;;;;26.70;53.10;;;;;;5070774;28;20006;-74
2022/04/29 11:07:32;;;;;;;;;;;26.80;53.00;;;;;;5070749;28;19908;-75
2022/04/29 11:09:58;;;;;;;;;;;26.80;53.00;;;;;;5103386;28;19925;-75
2022/04/29 11:12:30;;;;;;;;;;;27.00;52.80;;;;;;5062631;28;19921;-75
2022/04/29 11:15:05;;;;;;;;;;;27.00;52.10;;;;;;5051127;28;19913;-74
2022/04/29 11:17:34;;;;;;;;;;;27.10;52.50;;;;;;5049540;28;20413;-73
2022/04/29 11:20:11;;;;;;;;;;;27.40;52.60;;;;;;5050671;28;19932;-73
2022/04/29 11:25:21;;;;;;;;;;;27.60;52.40;;;;;;5051295;28;19920;-72
2022/04/29 11:27:49;;;;;;;;;;;27.30;52.30;;;;;;5049202;28;19913;-74
2022/04/29 11:30:15;;;;;;;;;;;27.00;51.70;;;;;;5051066;28;19908;-73
2022/04/29 11:32:42;;;;;;;;;;;26.90;52.00;;;;;;5049559;28;19975;-73
2022/04/29 11:35:08;;;;;;;;;;;27.10;52.00;;;;;;5050259;28;20355;-73
2022/04/29 11:37:35;;;;;;;;;;;27.40;52.40;;;;;;5050063;28;19935;-74
2022/04/29 11:40:01;;;;;;;;;;;27.80;52.40;;;;;;5050013;28;20004;-73
2022/04/29 11:42:27;;;;;;;;;;;27.50;52.50;;;;;;5050368;28;19912;-75
2022/04/29 11:44:53;;;;;;;;;;;27.40;52.40;;;;;;5050222;28;19927;-73
2022/04/29 11:47:25;;;;;;;;;;;27.60;52.50;;;;;;5050298;28;19909;-74
2022/04/29 11:49:51;;;;;;;;;;;27.50;52.40;;;;;;5050333;28;19991;-74
2022/04/29 11:52:21;;;;;;;;;;;27.50;53.10;;;;;;5050018;28;20216;-74
2022/04/29 11:54:50;;;;;;;;;;;27.70;52.50;;;;;;5049570;28;19966;-72
2022/04/29 11:57:16;;;;;;;;;;;27.60;52.00;;;;;;5048823;28;19936;-72
2022/04/29 11:59:41;;;;;;;;;;;27.40;51.80;;;;;;5049925;28;19913;-72
2022/04/29 12:02:11;;;;;;;;;;;27.30;52.20;;;;;;5047895;28;19959;-73
2022/04/29 12:04:36;;;;;;;;;;;27.40;51.50;;;;;;5049361;28;19921;-73
2022/04/29 12:07:05;;;;;;;;;;;27.50;51.40;;;;;;5049846;28;19909;-73
2022/04/29 12:09:34;;;;;;;;;;;27.50;51.70;;;;;;5050290;28;20003;-73
2022/04/29 12:11:59;;;;;;;;;;;27.40;51.90;;;;;;5049732;28;19908;-73
2022/04/29 12:14:26;;;;;;;;;;;27.30;52.50;;;;;;5049956;28;19923;-74
2022/04/29 12:16:52;;;;;;;;;;;27.30;52.70;;;;;;5056794;28;20041;-74
2022/04/29 12:19:18;;;;;;;;;;;27.30;53.00;;;;;;5056694;28;20007;-74
2022/04/29 12:21:55;;;;;;;;;;;27.60;53.10;;;;;;5058024;28;19913;-75
2022/04/29 12:24:20;;;;;;;;;;;28.00;52.60;;;;;;5061115;28;19916;-75
2022/04/29 12:27:05;;;;;;;;;;;28.30;52.40;;;;;;5063966;28;19931;-74
2022/04/29 12:29:31;;;;;;;;;;;28.30;52.50;;;;;;5054583;28;19909;-73
2022/04/29 12:34:50;;;;;;;;;;;28.00;52.90;;;;;;5077145;28;20019;-73
2022/04/29 12:37:19;;;;;;;;;;;28.10;52.70;;;;;;5049890;28;19912;-72
2022/04/29 12:39:47;;;;;;;;;;;27.90;52.50;;;;;;5049318;28;20018;-68
2022/04/29 12:42:14;;;;;;;;;;;27.90;52.20;;;;;;5049111;28;19912;-74
2022/04/29 12:45:10;;;;;;;;;;;27.90;52.40;;;;;;5049143;28;19995;-73
2022/04/29 12:47:39;;;;;;;;;;;28.10;51.80;;;;;;5049193;28;19915;-75
2022/04/29 12:50:37;;;;;;;;;;;28.20;50.80;;;;;;5049191;28;19908;-72
2022/04/29 12:53:07;;;;;;;;;;;27.90;50.10;;;;;;5037458;28;20425;-73
2022/04/29 12:55:37;;;;;;;;;;;27.30;50.40;;;;;;5049912;28;19913;-72
2022/04/29 12:58:04;;;;;;;;;;;27.00;50.80;;;;;;5049098;28;20344;-73
2022/04/29 13:00:30;;;;;;;;;;;27.00;51.10;;;;;;5049218;28;19909;-73
2022/04/29 13:02:57;;;;;;;;;;;27.10;50.40;;;;;;5049289;28;19913;-74
2022/04/29 13:05:22;;;;;;;;;;;27.00;50.10;;;;;;5048802;28;19935;-72
2022/04/29 13:07:48;;;;;;;;;;;26.80;49.50;;;;;;5049079;28;20260;-74
2022/04/29 13:10:14;;;;;;;;;;;26.40;49.10;;;;;;5048927;28;20015;-75
2022/04/29 13:12:40;;;;;;;;;;;26.00;49.80;;;;;;5048973;28;19924;-73
2022/04/29 13:15:06;;;;;;;;;;;25.90;50.70;;;;;;5048443;28;19912;-73
2022/04/29 13:17:31;;;;;;;;;;;25.80;50.50;;;;;;5048735;28;20008;-77
2022/04/29 13:19:57;;;;;;;;;;;25.50;50.70;;;;;;5048344;28;20276;-73
2022/04/29 13:22:22;;;;;;;;;;;25.40;51.20;;;;;;5080533;28;19962;-73
2022/04/29 13:24:48;;;;;;;;;;;25.30;51.30;;;;;;5048044;28;19928;-72
2022/04/29 13:27:14;;;;;;;;;;;25.10;50.60;;;;;;5047956;28;19920;-73
2022/04/29 13:29:40;;;;;;;;;;;24.50;49.90;;;;;;5047800;28;19912;-74
2022/04/29 13:32:05;;;;;;;;;;;23.90;49.80;;;;;;5054108;28;20284;-73
2022/04/29 13:34:31;;;;;;;;;;;23.40;49.90;;;;;;5056314;28;20089;-74
2022/04/29 13:36:59;;;;;;;;;;;22.80;50.80;;;;;;5056564;28;20181;-73
2022/04/29 13:39:24;;;;;;;;;;;22.30;50.40;;;;;;5060039;28;20095;-71
2022/04/29 13:41:50;;;;;;;;;;;21.90;50.70;;;;;;5062115;28;19927;-74
2022/04/29 13:44:16;;;;;;;;;;;21.70;50.90;;;;;;5063269;28;19921;-74
2022/04/29 13:46:41;;;;;;;;;;;21.50;50.60;;;;;;5055051;28;19916;-74
2022/04/29 13:49:07;;;;;;;;;;;21.30;50.20;;;;;;5054340;28;19947;-76
2022/04/29 13:51:36;;;;;;;;;;;21.00;50.20;;;;;;5059586;28;19912;-71
2022/04/29 13:54:01;;;;;;;;;;;20.70;50.10;;;;;;5074453;28;19967;-74
2022/04/29 13:56:27;;;;;;;;;;;20.50;50.40;;;;;;5056521;28;19916;-73
2022/04/29 13:58:52;;;;;;;;;;;20.40;50.10;;;;;;5059431;28;19917;-73
2022/04/29 14:01:18;;;;;;;;;;;20.30;49.90;;;;;;5057168;28;20016;-73
2022/04/29 14:03:44;;;;;;;;;;;20.30;50.30;;;;;;5098870;28;20019;-73
2022/04/29 14:06:09;;;;;;;;;;;20.40;50.00;;;;;;5058469;28;19909;-74
2022/04/29 14:08:37;;;;;;;;;;;20.30;49.90;;;;;;5067470;28;20271;-72
2022/04/29 14:11:02;;;;;;;;;;;20.10;50.10;;;;;;5067498;28;19920;-73
2022/04/29 14:13:28;;;;;;;;;;;19.90;50.10;;;;;;5056314;28;19916;-72
2022/04/29 14:15:54;;;;;;;;;;;19.80;50.20;;;;;;5048148;28;20010;-74
2022/04/29 14:18:19;;;;;;;;;;;19.80;50.30;;;;;;5050692;28;20358;-72
2022/04/29 14:20:45;;;;;;;;;;;19.80;50.30;;;;;;5067587;28;19912;-72
2022/04/29 14:23:13;;;;;;;;;;;19.80;50.30;;;;;;5050337;28;20317;-71
2022/04/29 14:25:39;;;;;;;;;;;20.00;50.40;;;;;;5051859;28;20258;-73
2022/04/29 14:28:05;;;;;;;;;;;20.20;50.30;;;;;;5051874;28;19991;-73
2022/04/29 14:30:30;;;;;;;;;;;20.20;50.00;;;;;;5052105;28;19913;-73
2022/04/29 14:32:56;;;;;;;;;;;20.10;50.00;;;;;;5052101;28;19947;-73
2022/04/29 14:35:22;;;;;;;;;;;20.00;50.10;;;;;;5051940;28;19948;-72
2022/04/29 14:37:50;;;;;;;;;;;19.90;50.20;;;;;;5051426;28;19924;-73
2022/04/29 14:40:16;;;;;;;;;;;19.80;50.30;;;;;;5051993;28;19920;-74
2022/04/29 14:42:41;;;;;;;;;;;19.70;50.40;;;;;;5051673;28;19913;-71
2022/04/29 14:45:08;;;;;;;;;;;19.80;50.50;;;;;;5051854;28;20016;-73
2022/04/29 14:47:34;;;;;;;;;;;19.80;50.40;;;;;;5051602;28;19919;-74
2022/04/29 14:50:01;;;;;;;;;;;19.60;50.30;;;;;;5083577;28;19913;-75